KEKN/EKN METAR and TAF weather

Enter ICAO airport designator
Station Type Date Time Source
KEKN METAR 2021/05/15 01:51 UTC NOAA

KEKN 150151Z AUTO 00000KT 10SM CLR 08/02 A3028 RMK AO2 SLP261 T00830017


Station Type Date Time Source
KEKN Decoded METAR 2021/05/15 01:51 UTC NOAA

JENNINGS RANDOLPH FIELD, WV, United States (KEKN) 38-53N 079-51W 603M
May 14, 2021 - 09:51 PM EDT / 2021.05.15 0151 UTC
Wind: Calm:0
Visibility: 10 mile(s):0
Sky conditions: clear
Temperature: 46.9 F (8.3 C)
Dew Point: 35.1 F (1.7 C)
Relative Humidity: 63%
Pressure (altimeter): 30.28 in. Hg (1025 hPa)
ob: KEKN 150151Z AUTO 00000KT 10SM CLR 08/02 A3028 RMK AO2 SLP261 T00830017
cycle: 2

Station Type Date Time Source
KEKN TAF 2021/05/14 21:48 UTC NOAA

KEKN 142044Z 1421/1518 34004KT P6SM BKN070
FM142200 VRB03KT P6SM BKN070
FM151000 00000KT 5SM BR FEW090
FM151200 00000KT 5SM BR SCT080

Example: see airport list